Garden City, Alabama
Current Conditions -  °F | °C
As of 6:15 AM on Tuesday 27 Jan 2015 (Local Time) from KCMD Reporting Station
Clear Clear  
Wind Chill: 32°   Ceiling: Unl
Heat Index: 37°   Visibility: 10mi
Dew Point: 32°   Wind: 6mph
Humidity: 84%   Direction: 310°NW
Pressure: 29.94"   Gusts: NA
Location:  34.01°N, 86.75°W
Report Text: KCMD 271215Z AUTO 31005KT 10SM CLR 03/00 A2994 RMK AO2 T00250000
Loading
Personal Weather Stations






























Interactive Weather Map New forecast layout! Learn more

10-Day Weather Forecast

Advertisements
Track Severe Weather on mobile